createdAt,value
2022-08-29T00:00:28.311Z,1017.27
2022-08-29T00:01:27.894Z,1017.25
2022-08-29T00:02:27.993Z,1017.25
2022-08-29T00:05:28.066Z,1017.26
2022-08-29T00:06:28.063Z,1017.18
2022-08-29T00:07:28.394Z,1017.18
2022-08-29T00:08:28.133Z,1017.19
2022-08-29T00:09:28.166Z,1017.19
2022-08-29T00:10:28.194Z,1017.15
2022-08-29T00:11:28.234Z,1017.16
2022-08-29T00:12:28.259Z,1017.15
2022-08-29T00:13:28.313Z,1017.13
2022-08-29T00:14:28.628Z,1017.14
2022-08-29T00:16:28.458Z,1017.14
2022-08-29T00:17:28.428Z,1017.16
2022-08-29T00:18:28.468Z,1017.16
2022-08-29T00:20:34.033Z,1017.15
2022-08-29T00:21:28.874Z,1017.15
2022-08-29T00:22:28.602Z,1017.15
2022-08-29T00:23:28.631Z,1017.13
2022-08-29T00:24:28.817Z,1017.14
2022-08-29T00:25:28.712Z,1017.16
2022-08-29T00:27:28.772Z,1017.14
2022-08-29T00:28:29.056Z,1017.16
2022-08-29T00:29:28.840Z,1017.14
2022-08-29T00:30:28.926Z,1017.14
2022-08-29T00:31:28.960Z,1017.21
2022-08-29T00:33:28.971Z,1017.23
2022-08-29T00:34:29.300Z,1017.19
2022-08-29T00:35:29.038Z,1017.22
2022-08-29T00:36:30.506Z,1017.25
2022-08-29T00:37:29.105Z,1017.25
2022-08-29T00:38:29.140Z,1017.28
2022-08-29T00:39:29.175Z,1017.28
2022-08-29T00:40:29.609Z,1017.26
2022-08-29T00:41:29.240Z,1017.26
2022-08-29T00:43:29.309Z,1017.20
2022-08-29T00:44:29.339Z,1017.24
2022-08-29T00:45:29.455Z,1017.21
2022-08-29T00:46:29.714Z,1017.21
2022-08-29T00:47:29.437Z,1017.19
2022-08-29T00:48:29.474Z,1017.18
2022-08-29T00:49:29.513Z,1017.19
2022-08-29T00:50:29.539Z,1017.15
2022-08-29T00:51:29.576Z,1017.18
2022-08-29T00:52:29.602Z,1017.14
2022-08-29T00:53:29.888Z,1017.18
2022-08-29T00:54:29.716Z,1017.16
2022-08-29T00:55:29.707Z,1017.16
2022-08-29T00:56:29.730Z,1017.14
2022-08-29T00:57:29.770Z,1017.15
2022-08-29T00:58:29.802Z,1017.12
2022-08-29T00:59:29.841Z,1017.10
2022-08-29T01:00:30.169Z,1017.12
2022-08-29T01:01:29.997Z,1017.12
2022-08-29T01:02:29.993Z,1017.11
2022-08-29T01:03:29.966Z,1017.10
2022-08-29T01:04:30.000Z,1017.12
2022-08-29T01:06:30.069Z,1017.15
2022-08-29T01:07:30.354Z,1017.14
2022-08-29T01:08:30.137Z,1017.17
2022-08-29T01:09:30.166Z,1017.20
2022-08-29T01:10:30.200Z,1017.19
2022-08-29T01:15:40.570Z,1017.32
2022-08-29T01:16:40.382Z,1017.35
2022-08-29T01:17:40.351Z,1017.37
2022-08-29T01:18:40.408Z,1017.37
2022-08-29T01:19:40.415Z,1017.38
2022-08-29T01:20:40.449Z,1017.39
2022-08-29T01:21:40.484Z,1017.35
2022-08-29T01:22:40.775Z,1017.35
2022-08-29T01:23:40.550Z,1017.39
2022-08-29T01:24:40.577Z,1017.39
2022-08-29T01:25:40.611Z,1017.35
2022-08-29T01:27:24.053Z,1017.40
2022-08-29T01:28:24.071Z,1017.43
2022-08-29T01:29:24.358Z,1017.41
2022-08-29T01:31:37.666Z,1017.40
2022-08-29T01:32:24.366Z,1017.43
2022-08-29T01:33:24.237Z,1017.44
2022-08-29T01:34:24.269Z,1017.49
2022-08-29T01:35:24.302Z,1017.47
2022-08-29T01:36:24.639Z,1017.48
2022-08-29T01:37:24.375Z,1017.46
2022-08-29T01:38:24.405Z,1017.48
2022-08-29T01:39:24.435Z,1017.47
2022-08-29T01:40:24.539Z,1017.48
2022-08-29T01:41:24.501Z,1017.50
2022-08-29T01:42:24.843Z,1017.50
2022-08-29T01:43:24.587Z,1017.52
2022-08-29T01:44:24.604Z,1017.50
2022-08-29T01:45:24.707Z,1017.52
2022-08-29T01:46:24.679Z,1017.53
2022-08-29T01:47:24.706Z,1017.54
2022-08-29T01:48:24.989Z,1017.55
2022-08-29T01:49:24.767Z,1017.58
2022-08-29T01:50:24.803Z,1017.61
2022-08-29T01:51:24.940Z,1017.60
2022-08-29T01:52:24.970Z,1017.62
2022-08-29T01:54:24.944Z,1017.60
2022-08-29T01:55:25.222Z,1017.60
2022-08-29T01:56:25.016Z,1017.56
2022-08-29T01:57:25.456Z,1017.58
2022-08-29T01:58:25.070Z,1017.58
2022-08-29T01:59:25.123Z,1017.59
2022-08-29T02:00:25.135Z,1017.59
2022-08-29T02:01:25.587Z,1017.60
2022-08-29T02:02:25.304Z,1017.58
2022-08-29T02:03:25.236Z,1017.57
2022-08-29T02:04:25.264Z,1017.60
2022-08-29T02:05:25.309Z,1017.56
2022-08-29T02:07:25.406Z,1017.53
2022-08-29T02:08:25.669Z,1017.54
2022-08-29T02:09:25.432Z,1017.53
2022-08-29T02:10:25.481Z,1017.59
2022-08-29T02:11:25.501Z,1017.52
2022-08-29T02:12:25.536Z,1017.56
2022-08-29T02:13:25.571Z,1017.57
2022-08-29T02:14:25.601Z,1017.53
2022-08-29T02:15:25.934Z,1017.56
2022-08-29T02:16:25.697Z,1017.56
2022-08-29T02:17:25.703Z,1017.58
2022-08-29T02:18:25.740Z,1017.57
2022-08-29T02:19:25.873Z,1017.54
2022-08-29T02:20:25.811Z,1017.55
2022-08-29T02:21:25.834Z,1017.56
2022-08-29T02:22:26.168Z,1017.60
2022-08-29T02:23:31.010Z,1017.59
2022-08-29T02:24:26.481Z,1017.60
2022-08-29T02:25:25.972Z,1017.60
2022-08-29T02:26:26.002Z,1017.63
2022-08-29T02:27:26.030Z,1017.63
2022-08-29T02:28:26.071Z,1017.63
2022-08-29T02:29:26.356Z,1017.62
2022-08-29T02:30:26.133Z,1017.61
2022-08-29T02:31:26.200Z,1017.56
2022-08-29T02:32:26.196Z,1017.52
2022-08-29T02:33:26.230Z,1017.56
2022-08-29T02:35:26.300Z,1017.54
2022-08-29T02:36:26.630Z,1017.49
2022-08-29T02:37:26.365Z,1017.53
2022-08-29T02:38:26.400Z,1017.49
2022-08-29T02:39:26.430Z,1017.54
2022-08-29T02:40:32.025Z,1017.52
2022-08-29T02:41:26.634Z,1017.50
2022-08-29T02:42:26.530Z,1017.49
2022-08-29T02:43:26.882Z,1017.46
2022-08-29T02:45:26.633Z,1017.51
2022-08-29T02:46:26.744Z,1017.45
2022-08-29T02:48:26.726Z,1017.45
2022-08-29T02:49:26.761Z,1017.46
2022-08-29T02:50:27.091Z,1017.49
2022-08-29T02:51:26.827Z,1017.50
2022-08-29T02:52:26.860Z,1017.47
2022-08-29T02:53:26.910Z,1017.49
2022-08-29T02:54:26.938Z,1017.46
2022-08-29T02:55:26.989Z,1017.44
2022-08-29T02:56:26.996Z,1017.44
2022-08-29T02:57:27.329Z,1017.43
2022-08-29T02:58:27.060Z,1017.45
2022-08-29T02:59:27.093Z,1017.47
2022-08-29T03:00:27.158Z,1017.43
2022-08-29T03:01:27.162Z,1017.45
2022-08-29T03:02:27.195Z,1017.45
2022-08-29T03:03:27.226Z,1017.42
2022-08-29T03:04:27.508Z,1017.43
2022-08-29T03:05:27.293Z,1017.42
2022-08-29T03:06:27.324Z,1017.38
2022-08-29T03:07:27.361Z,1017.35
2022-08-29T03:08:27.394Z,1017.42
2022-08-29T03:09:27.429Z,1017.35
2022-08-29T03:10:27.457Z,1017.35
2022-08-29T03:11:27.793Z,1017.37
2022-08-29T03:12:27.526Z,1017.32
2022-08-29T03:13:27.557Z,1017.30
2022-08-29T03:14:27.590Z,1017.34
2022-08-29T03:15:27.631Z,1017.32
2022-08-29T03:16:27.744Z,1017.29
2022-08-29T03:17:27.697Z,1017.26
2022-08-29T03:18:28.021Z,1017.31
2022-08-29T03:19:27.758Z,1017.32
2022-08-29T03:20:27.813Z,1017.33
2022-08-29T03:21:27.819Z,1017.36
2022-08-29T03:22:27.961Z,1017.30
2022-08-29T03:23:27.888Z,1017.35
2022-08-29T03:24:28.170Z,1017.33
2022-08-29T03:25:27.972Z,1017.28
2022-08-29T03:26:27.988Z,1017.28
2022-08-29T03:27:28.020Z,1017.26
2022-08-29T03:28:28.053Z,1017.22
2022-08-29T03:29:28.084Z,1017.21
2022-08-29T03:30:28.425Z,1017.21
2022-08-29T03:31:28.348Z,1017.19
2022-08-29T03:32:28.186Z,1017.19
2022-08-29T03:33:28.216Z,1017.21
2022-08-29T03:34:28.255Z,1017.22
2022-08-29T03:35:28.284Z,1017.20
2022-08-29T03:36:28.566Z,1017.19
2022-08-29T03:37:28.353Z,1017.21
2022-08-29T03:38:28.380Z,1017.19
2022-08-29T03:39:28.414Z,1017.16
2022-08-29T03:40:28.582Z,1017.17
2022-08-29T03:41:28.481Z,1017.17
2022-08-29T03:42:28.519Z,1017.16
2022-08-29T03:43:28.797Z,1017.16
2022-08-29T03:44:28.578Z,1017.15
2022-08-29T03:45:28.616Z,1017.21
2022-08-29T03:46:28.711Z,1017.16
2022-08-29T03:47:28.712Z,1017.14
2022-08-29T03:48:28.711Z,1017.12
2022-08-29T03:49:28.745Z,1017.14
2022-08-29T03:50:29.079Z,1017.12
2022-08-29T03:51:29.367Z,1017.12
2022-08-29T03:52:28.861Z,1017.15
2022-08-29T03:53:28.880Z,1017.11
2022-08-29T03:54:28.909Z,1017.10
2022-08-29T03:55:28.947Z,1017.10
2022-08-29T03:56:28.977Z,1017.10
2022-08-29T03:58:29.292Z,1017.06
2022-08-29T03:59:29.075Z,1017.07
2022-08-29T04:00:29.108Z,1017.07
2022-08-29T04:01:29.227Z,1017.04
2022-08-29T04:02:29.235Z,1017.06
2022-08-29T04:03:31.454Z,1017.05
2022-08-29T04:04:29.240Z,1017.01
2022-08-29T04:05:29.579Z,1017.04
2022-08-29T04:08:56.028Z,1017.05
2022-08-29T04:09:56.058Z,1017.08
2022-08-29T04:10:56.144Z,1017.10
2022-08-29T04:11:56.432Z,1017.13
2022-08-29T04:12:56.160Z,1017.16
2022-08-29T04:13:56.236Z,1017.16
2022-08-29T04:14:56.226Z,1017.15
2022-08-29T04:15:56.342Z,1017.13
2022-08-29T04:16:56.439Z,1017.12
2022-08-29T04:18:56.416Z,1017.13
2022-08-29T04:19:56.388Z,1017.14
2022-08-29T04:20:56.416Z,1017.13
2022-08-29T04:21:56.453Z,1017.16
2022-08-29T04:22:56.486Z,1017.16
2022-08-29T04:23:56.522Z,1017.19
2022-08-29T04:24:56.899Z,1017.23
2022-08-29T04:26:12.701Z,1017.21
2022-08-29T04:26:56.614Z,1017.23
2022-08-29T04:27:56.653Z,1017.24
2022-08-29T04:28:56.682Z,1017.19
2022-08-29T04:29:56.719Z,1017.26
2022-08-29T04:30:56.770Z,1017.30
2022-08-29T04:31:57.086Z,1017.30
2022-08-29T04:32:56.839Z,1017.33
2022-08-29T04:33:56.849Z,1017.33
2022-08-29T04:34:56.878Z,1017.34
2022-08-29T04:35:56.995Z,1017.37
2022-08-29T04:36:57.039Z,1017.39
2022-08-29T04:37:57.018Z,1017.37
2022-08-29T04:38:57.294Z,1017.36
2022-08-29T04:39:57.137Z,1017.35
2022-08-29T04:40:57.077Z,1017.39
2022-08-29T04:41:57.214Z,1017.38
2022-08-29T04:42:57.145Z,1017.39
2022-08-29T04:43:57.185Z,1017.42
2022-08-29T04:44:57.206Z,1017.44
2022-08-29T04:45:57.675Z,1017.47
2022-08-29T04:46:57.342Z,1017.49
2022-08-29T04:48:00.695Z,1017.51
2022-08-29T04:49:01.820Z,1017.53
2022-08-29T04:50:57.404Z,1017.50
2022-08-29T04:51:57.437Z,1017.45
2022-08-29T04:52:57.775Z,1017.48
2022-08-29T04:53:57.503Z,1017.46
2022-08-29T04:54:57.541Z,1017.47
2022-08-29T04:55:57.570Z,1017.47
2022-08-29T04:56:57.734Z,1017.47
2022-08-29T04:57:57.635Z,1017.50
2022-08-29T04:58:57.667Z,1017.49
2022-08-29T04:59:57.999Z,1017.50
2022-08-29T05:00:57.738Z,1017.49
2022-08-29T05:01:57.860Z,1017.48
2022-08-29T05:02:57.878Z,1017.49
2022-08-29T05:03:57.856Z,1017.44
2022-08-29T05:04:57.871Z,1017.48
2022-08-29T05:05:57.904Z,1017.49
2022-08-29T05:06:58.187Z,1017.45
2022-08-29T05:07:57.969Z,1017.49
2022-08-29T05:08:59.461Z,1017.51
2022-08-29T05:09:58.028Z,1017.52
2022-08-29T05:10:58.068Z,1017.50
2022-08-29T05:11:58.095Z,1017.50
2022-08-29T05:12:58.127Z,1017.52
2022-08-29T05:13:58.470Z,1017.52
2022-08-29T05:14:58.196Z,1017.51
2022-08-29T05:15:58.297Z,1017.52
2022-08-29T05:16:58.266Z,1017.51
2022-08-29T05:17:58.294Z,1017.51
2022-08-29T05:19:58.657Z,1017.56
2022-08-29T05:20:58.392Z,1017.55
2022-08-29T05:21:58.475Z,1017.60
2022-08-29T05:22:58.455Z,1017.58
2022-08-29T05:24:58.527Z,1017.62
2022-08-29T05:25:58.554Z,1017.63
2022-08-29T05:26:58.890Z,1017.63
2022-08-29T05:27:58.624Z,1017.65
2022-08-29T05:28:58.655Z,1017.62
2022-08-29T05:29:58.711Z,1017.63
2022-08-29T05:30:58.896Z,1017.62
2022-08-29T05:31:58.758Z,1017.59
2022-08-29T05:32:59.092Z,1017.63
2022-08-29T05:33:58.829Z,1017.67
2022-08-29T05:34:58.857Z,1017.65
2022-08-29T05:35:58.883Z,1017.68
2022-08-29T05:37:58.955Z,1017.67
2022-08-29T05:38:58.982Z,1017.72
2022-08-29T05:39:59.392Z,1017.71
2022-08-29T05:40:59.043Z,1017.75
2022-08-29T05:41:59.081Z,1017.75
2022-08-29T05:42:59.223Z,1017.78
2022-08-29T05:43:59.401Z,1017.78
2022-08-29T05:44:59.176Z,1017.75
2022-08-29T05:45:59.650Z,1017.78
2022-08-29T05:46:59.243Z,1017.77
2022-08-29T05:47:59.300Z,1017.78
2022-08-29T05:48:59.320Z,1017.82
2022-08-29T05:49:59.349Z,1017.85
2022-08-29T05:51:59.421Z,1017.93
2022-08-29T05:52:59.746Z,1017.92
2022-08-29T05:53:59.476Z,1017.96
2022-08-29T05:54:59.518Z,1017.90
2022-08-29T05:55:59.548Z,1017.91
2022-08-29T05:56:59.575Z,1017.94
2022-08-29T05:57:59.612Z,1017.89
2022-08-29T05:58:59.641Z,1017.90
2022-08-29T05:59:59.674Z,1017.89
2022-08-29T06:00:59.715Z,1017.87
2022-08-29T06:01:59.747Z,1017.89
2022-08-29T06:02:59.889Z,1017.90
2022-08-29T06:03:59.990Z,1017.89
2022-08-29T06:04:59.841Z,1017.91
2022-08-29T06:05:59.923Z,1017.90
2022-08-29T06:06:59.912Z,1017.92
2022-08-29T06:07:59.939Z,1017.89
2022-08-29T06:08:59.970Z,1017.92
2022-08-29T06:10:03.597Z,1017.88
2022-08-29T06:11:00.335Z,1017.91
2022-08-29T06:12:00.077Z,1017.90
2022-08-29T06:13:00.117Z,1017.93
2022-08-29T06:14:00.234Z,1017.95
2022-08-29T06:15:00.178Z,1017.94
2022-08-29T06:16:00.273Z,1017.95
2022-08-29T06:17:00.238Z,1017.94
2022-08-29T06:18:00.518Z,1017.95
2022-08-29T06:19:00.299Z,1017.95
2022-08-29T06:20:00.340Z,1017.93
2022-08-29T06:21:00.371Z,1017.91
2022-08-29T06:22:00.404Z,1017.92
2022-08-29T06:23:00.434Z,1017.86
2022-08-29T06:24:00.863Z,1017.85
2022-08-29T06:25:00.598Z,1017.89
2022-08-29T06:26:00.526Z,1017.95
2022-08-29T06:27:00.663Z,1017.98
2022-08-29T06:28:00.605Z,1017.92
2022-08-29T06:29:00.633Z,1017.93
2022-08-29T06:30:02.073Z,1017.91
2022-08-29T06:31:00.723Z,1017.89
2022-08-29T06:32:00.728Z,1017.93
2022-08-29T06:33:00.758Z,1017.92
2022-08-29T06:34:00.791Z,1017.98
2022-08-29T06:35:00.829Z,1017.96
2022-08-29T06:36:01.169Z,1017.99
2022-08-29T06:37:00.925Z,1018.02
2022-08-29T06:38:00.926Z,1017.99
2022-08-29T06:39:00.962Z,1018.04
2022-08-29T06:40:01.043Z,1017.97
2022-08-29T06:41:01.027Z,1018.02
2022-08-29T06:43:01.396Z,1018.04
2022-08-29T06:44:01.123Z,1018.06
2022-08-29T06:45:01.157Z,1018.09
2022-08-29T06:46:01.257Z,1018.07
2022-08-29T06:47:01.224Z,1018.06
2022-08-29T06:48:01.258Z,1018.06
2022-08-29T06:50:01.623Z,1018.04
2022-08-29T06:51:01.357Z,1018.12
2022-08-29T06:52:01.397Z,1018.11
2022-08-29T06:53:26.027Z,1018.11
2022-08-29T06:54:01.452Z,1018.10
2022-08-29T06:55:01.494Z,1018.11
2022-08-29T06:56:01.516Z,1018.11
2022-08-29T06:57:01.805Z,1018.14
2022-08-29T06:58:01.637Z,1018.12
2022-08-29T06:59:01.626Z,1018.12
2022-08-29T07:00:01.749Z,1018.10
2022-08-29T07:01:01.732Z,1018.13
2022-08-29T07:02:01.841Z,1018.17
2022-08-29T07:03:01.834Z,1018.16
2022-08-29T07:04:02.091Z,1018.16
2022-08-29T07:05:01.821Z,1018.15
2022-08-29T07:06:01.849Z,1018.15
2022-08-29T07:07:01.888Z,1018.11
2022-08-29T07:08:01.923Z,1018.10
2022-08-29T07:09:01.952Z,1018.08
2022-08-29T07:10:01.996Z,1018.06
2022-08-29T07:11:02.042Z,1018.10
2022-08-29T07:12:02.063Z,1018.13
2022-08-29T07:13:02.090Z,1018.16
2022-08-29T07:14:02.114Z,1018.17
2022-08-29T07:15:02.154Z,1018.18
2022-08-29T07:16:02.280Z,1018.17
2022-08-29T07:17:02.468Z,1018.18
2022-08-29T07:18:02.255Z,1018.16
2022-08-29T07:19:02.286Z,1018.16
2022-08-29T07:20:02.318Z,1018.15
2022-08-29T07:21:02.369Z,1018.16
2022-08-29T07:22:02.380Z,1018.19
2022-08-29T07:23:02.413Z,1018.20
2022-08-29T07:24:02.776Z,1018.23
2022-08-29T07:25:02.478Z,1018.26
2022-08-29T07:26:02.520Z,1018.26
2022-08-29T07:27:02.554Z,1018.29
2022-08-29T07:28:02.584Z,1018.26
2022-08-29T07:29:03.461Z,1018.26
2022-08-29T07:30:02.640Z,1018.28
2022-08-29T07:31:02.957Z,1018.21
2022-08-29T07:32:02.759Z,1018.22
2022-08-29T07:33:02.744Z,1018.20
2022-08-29T07:34:03.243Z,1018.17
2022-08-29T07:35:02.819Z,1018.17
2022-08-29T07:36:02.845Z,1018.10
2022-08-29T07:37:05.780Z,1018.11
2022-08-29T07:38:02.911Z,1018.08
2022-08-29T07:39:02.941Z,1018.12
2022-08-29T07:41:03.016Z,1018.07
2022-08-29T07:42:03.045Z,1018.06
2022-08-29T07:43:03.087Z,1018.07
2022-08-29T07:44:03.417Z,1018.08
2022-08-29T07:45:03.141Z,1018.10
2022-08-29T07:46:03.228Z,1018.07
2022-08-29T07:47:03.216Z,1018.07
2022-08-29T07:48:03.243Z,1018.06
2022-08-29T07:49:03.275Z,1018.07
2022-08-29T07:50:03.530Z,1018.07
2022-08-29T07:51:06.120Z,1018.08
2022-08-29T07:52:03.374Z,1018.09
2022-08-29T07:53:03.409Z,1018.09
2022-08-29T07:54:04.449Z,1018.10
2022-08-29T07:55:03.472Z,1018.08
2022-08-29T07:56:03.758Z,1018.11
2022-08-29T07:57:03.546Z,1018.10
2022-08-29T07:58:03.577Z,1018.14
2022-08-29T07:59:03.607Z,1018.15
2022-08-29T08:00:03.647Z,1018.17
2022-08-29T08:01:03.718Z,1018.22
2022-08-29T08:02:03.845Z,1018.23
2022-08-29T08:03:03.783Z,1018.21
2022-08-29T08:04:03.775Z,1018.26
2022-08-29T08:05:03.918Z,1018.24
2022-08-29T08:06:06.865Z,1018.26
2022-08-29T08:07:03.877Z,1018.25
2022-08-29T08:08:08.774Z,1018.24
2022-08-29T08:09:04.256Z,1018.21
2022-08-29T08:10:03.976Z,1018.17
2022-08-29T08:11:04.013Z,1018.16
2022-08-29T08:13:04.076Z,1018.20
2022-08-29T08:14:04.110Z,1018.18
2022-08-29T08:15:04.149Z,1018.17
2022-08-29T08:16:04.427Z,1018.19
2022-08-29T08:17:04.301Z,1018.18
2022-08-29T08:18:04.241Z,1018.20
2022-08-29T08:19:04.278Z,1018.14
2022-08-29T08:20:04.308Z,1018.15
2022-08-29T08:22:04.643Z,1018.17
2022-08-29T08:23:04.412Z,1018.20
2022-08-29T08:24:04.509Z,1018.19
2022-08-29T08:25:04.477Z,1018.20
2022-08-29T08:26:04.514Z,1018.23
2022-08-29T08:27:04.558Z,1018.24
2022-08-29T08:28:04.585Z,1018.23
2022-08-29T08:29:04.610Z,1018.22
2022-08-29T08:30:04.752Z,1018.20
2022-08-29T08:41:05.315Z,1018.18
2022-08-29T08:42:05.052Z,1018.17
2022-08-29T08:43:05.083Z,1018.20
2022-08-29T08:44:05.119Z,1018.19
2022-08-29T08:45:05.178Z,1018.19
2022-08-29T08:48:05.555Z,1018.22
2022-08-29T08:50:05.323Z,1018.20
2022-08-29T08:51:05.358Z,1018.22
2022-08-29T08:52:05.390Z,1018.19
2022-08-29T08:53:05.433Z,1018.16
2022-08-29T08:54:05.717Z,1018.16
2022-08-29T08:55:05.491Z,1018.15
2022-08-29T08:56:05.529Z,1018.14
2022-08-29T08:57:05.558Z,1018.12
2022-08-29T08:58:05.597Z,1018.07
2022-08-29T08:59:05.627Z,1018.09
2022-08-29T09:00:05.675Z,1018.10
2022-08-29T09:01:05.737Z,1018.16
2022-08-29T09:02:06.618Z,1018.19
2022-08-29T09:03:05.763Z,1018.19
2022-08-29T09:04:05.817Z,1018.18
2022-08-29T09:05:05.830Z,1018.17
2022-08-29T09:06:05.865Z,1018.22
2022-08-29T09:07:06.145Z,1018.19
2022-08-29T09:08:05.937Z,1018.16
2022-08-29T09:09:05.963Z,1018.18
2022-08-29T09:10:06.011Z,1018.21
2022-08-29T09:11:06.083Z,1018.20
2022-08-29T09:12:06.070Z,1018.20
2022-08-29T09:13:06.105Z,1018.21
2022-08-29T09:14:06.444Z,1018.21
2022-08-29T09:15:06.173Z,1018.20
2022-08-29T09:16:06.217Z,1018.19
2022-08-29T09:17:06.233Z,1018.23
2022-08-29T09:18:06.273Z,1018.20
2022-08-29T09:19:06.303Z,1018.23
2022-08-29T09:20:06.339Z,1018.25
2022-08-29T09:21:23.746Z,1018.23
2022-08-29T09:22:06.521Z,1018.18
2022-08-29T09:23:06.446Z,1018.23
2022-08-29T09:24:06.484Z,1018.24
2022-08-29T09:25:06.512Z,1018.24
2022-08-29T09:26:06.543Z,1018.25
2022-08-29T09:27:06.874Z,1018.24
2022-08-29T09:28:06.609Z,1018.25
2022-08-29T09:29:06.648Z,1018.22
2022-08-29T09:30:06.682Z,1018.17
2022-08-29T09:31:06.711Z,1018.16
2022-08-29T09:32:06.802Z,1018.14
2022-08-29T09:33:07.080Z,1018.13
2022-08-29T09:34:06.816Z,1018.16
2022-08-29T09:35:09.597Z,1018.16
2022-08-29T09:36:06.888Z,1018.15
2022-08-29T09:37:07.053Z,1018.14
2022-08-29T09:38:06.955Z,1018.15
2022-08-29T09:39:07.243Z,1018.17
2022-08-29T09:40:07.077Z,1018.14
2022-08-29T09:41:07.070Z,1018.14
2022-08-29T09:42:07.090Z,1018.14
2022-08-29T09:43:07.147Z,1018.12
2022-08-29T09:44:07.156Z,1018.09
2022-08-29T09:45:07.435Z,1018.10
2022-08-29T09:46:07.285Z,1018.06
2022-08-29T09:47:07.255Z,1018.08
2022-08-29T09:48:07.296Z,1018.07
2022-08-29T09:49:07.330Z,1018.07
2022-08-29T09:50:07.363Z,1018.05
2022-08-29T09:51:07.394Z,1018.08
2022-08-29T09:52:07.766Z,1018.08
2022-08-29T09:53:24.477Z,1018.04
2022-08-29T09:54:07.495Z,1018.08
2022-08-29T09:56:07.577Z,1018.07
2022-08-29T09:57:07.596Z,1018.12
2022-08-29T09:58:07.627Z,1018.11
2022-08-29T09:59:07.924Z,1018.11
2022-08-29T10:00:07.734Z,1018.10
2022-08-29T10:01:07.838Z,1018.09
2022-08-29T10:02:07.813Z,1018.09
2022-08-29T10:03:07.934Z,1018.05
2022-08-29T10:04:08.056Z,1018.06
2022-08-29T10:05:13.057Z,1018.04
2022-08-29T10:06:08.204Z,1018.03
2022-08-29T10:07:07.936Z,1018.02
2022-08-29T10:08:07.969Z,1018.02
2022-08-29T10:09:08.031Z,1018.08
2022-08-29T10:10:08.065Z,1018.04
2022-08-29T10:11:08.339Z,1018.02
2022-08-29T10:12:08.124Z,1018.06
2022-08-29T10:13:08.150Z,1018.00
2022-08-29T10:14:12.464Z,1018.04
2022-08-29T10:15:08.216Z,1018.01
2022-08-29T10:16:08.400Z,1017.99
2022-08-29T10:17:08.280Z,1018.03
2022-08-29T10:18:08.310Z,1017.95
2022-08-29T10:19:08.648Z,1018.01
2022-08-29T10:20:08.384Z,1018.05
2022-08-29T10:21:08.419Z,1017.99
2022-08-29T10:22:08.524Z,1018.01
2022-08-29T10:23:08.611Z,1017.97
2022-08-29T10:24:08.516Z,1017.95
2022-08-29T10:25:08.551Z,1017.94
2022-08-29T10:26:08.885Z,1017.91
2022-08-29T10:27:08.725Z,1017.93
2022-08-29T10:28:08.654Z,1017.88
2022-08-29T10:29:08.714Z,1017.90
2022-08-29T10:30:08.733Z,1017.85
2022-08-29T10:31:08.844Z,1017.85
2022-08-29T10:32:08.914Z,1017.83
2022-08-29T10:33:08.916Z,1017.81
2022-08-29T10:34:08.858Z,1017.79
2022-08-29T10:35:08.897Z,1017.81
2022-08-29T10:36:08.929Z,1017.77
2022-08-29T10:37:08.962Z,1017.81
2022-08-29T10:38:08.994Z,1017.80
2022-08-29T10:39:09.332Z,1017.82
2022-08-29T10:40:09.109Z,1017.84
2022-08-29T10:41:09.097Z,1017.82
2022-08-29T10:42:09.139Z,1017.83
2022-08-29T10:43:09.177Z,1017.80
2022-08-29T10:44:09.244Z,1017.86
2022-08-29T10:45:09.505Z,1017.78
2022-08-29T10:46:09.353Z,1017.78
2022-08-29T10:47:09.469Z,1017.78
2022-08-29T10:48:09.337Z,1017.71
2022-08-29T10:49:09.381Z,1017.76
2022-08-29T10:50:16.898Z,1017.70
2022-08-29T10:51:09.446Z,1017.66
2022-08-29T10:53:09.517Z,1017.67
2022-08-29T10:54:09.555Z,1017.61
2022-08-29T10:55:09.587Z,1017.66
2022-08-29T10:56:09.614Z,1017.62
2022-08-29T10:57:09.959Z,1017.59
2022-08-29T10:58:13.460Z,1017.62
2022-08-29T10:59:09.715Z,1017.62
2022-08-29T11:00:09.754Z,1017.65
2022-08-29T11:01:09.821Z,1017.61
2022-08-29T11:02:09.826Z,1017.55
2022-08-29T11:03:09.856Z,1017.65
2022-08-29T11:04:09.962Z,1017.63
2022-08-29T11:05:09.924Z,1017.62
2022-08-29T11:06:10.063Z,1017.65
2022-08-29T11:07:09.993Z,1017.60
2022-08-29T11:08:13.926Z,1017.59
2022-08-29T11:09:10.059Z,1017.56
2022-08-29T11:10:10.398Z,1017.54
2022-08-29T11:11:10.132Z,1017.54
2022-08-29T11:12:10.168Z,1017.51
2022-08-29T11:13:10.201Z,1017.47
2022-08-29T11:14:10.234Z,1017.47
2022-08-29T11:15:10.299Z,1017.48
2022-08-29T11:16:10.373Z,1017.43
2022-08-29T11:17:10.342Z,1017.41
2022-08-29T11:18:10.393Z,1017.40
2022-08-29T11:19:10.445Z,1017.40
2022-08-29T11:20:10.546Z,1017.43
2022-08-29T11:21:10.480Z,1017.38
2022-08-29T11:22:10.537Z,1017.32
2022-08-29T11:23:10.845Z,1017.35
2022-08-29T11:24:10.579Z,1017.42
2022-08-29T11:25:10.619Z,1017.34
2022-08-29T11:26:10.650Z,1017.32
2022-08-29T11:27:10.682Z,1017.35
2022-08-29T11:28:10.821Z,1017.33
2022-08-29T11:29:11.052Z,1017.29
2022-08-29T11:30:10.824Z,1017.24
2022-08-29T11:31:10.900Z,1017.28
2022-08-29T11:32:10.861Z,1017.28
2022-08-29T11:33:11.022Z,1017.27
2022-08-29T11:34:10.941Z,1017.26
2022-08-29T11:35:11.259Z,1017.27
2022-08-29T11:36:11.001Z,1017.29
2022-08-29T11:37:11.025Z,1017.26
2022-08-29T11:38:11.071Z,1017.22
2022-08-29T11:39:11.100Z,1017.24
2022-08-29T11:40:11.183Z,1017.28
2022-08-29T11:41:27.824Z,1017.29
2022-08-29T11:42:11.286Z,1017.26
2022-08-29T11:45:11.323Z,1017.29
2022-08-29T11:47:11.829Z,1017.28
2022-08-29T11:48:11.414Z,1017.27
2022-08-29T11:49:11.446Z,1017.28
2022-08-29T11:50:11.496Z,1017.31
2022-08-29T11:51:11.511Z,1017.32
2022-08-29T11:52:11.553Z,1017.30
2022-08-29T11:53:11.703Z,1017.29
2022-08-29T11:54:11.867Z,1017.30
2022-08-29T11:56:11.687Z,1017.31
2022-08-29T11:57:11.724Z,1017.34
2022-08-29T11:58:12.031Z,1017.32
2022-08-29T11:59:11.894Z,1017.34
2022-08-29T12:00:11.838Z,1017.28
2022-08-29T12:01:12.100Z,1017.25
2022-08-29T12:02:11.957Z,1017.25
2022-08-29T12:03:25.257Z,1017.33
2022-08-29T12:04:12.022Z,1017.31
2022-08-29T12:05:11.996Z,1017.32
2022-08-29T12:06:12.034Z,1017.34
2022-08-29T12:07:12.370Z,1017.33
2022-08-29T12:08:33.625Z,1017.30
2022-08-29T12:09:13.929Z,1017.22
2022-08-29T12:10:12.244Z,1017.17
2022-08-29T12:11:12.217Z,1017.14
2022-08-29T12:12:12.240Z,1017.13
2022-08-29T12:13:12.588Z,1017.11
2022-08-29T12:14:12.312Z,1017.10
2022-08-29T12:15:12.349Z,1017.09
2022-08-29T12:16:12.462Z,1017.11
2022-08-29T12:17:12.413Z,1017.13
2022-08-29T12:18:12.596Z,1017.15
2022-08-29T12:19:12.783Z,1017.13
2022-08-29T12:20:12.519Z,1017.11
2022-08-29T12:21:12.570Z,1017.09
2022-08-29T12:22:12.591Z,1017.06
2022-08-29T12:23:12.654Z,1017.03
2022-08-29T12:24:12.657Z,1017.00
2022-08-29T12:25:12.688Z,1017.02
2022-08-29T12:26:28.282Z,1016.96
2022-08-29T12:27:15.687Z,1016.96
2022-08-29T12:28:12.806Z,1016.93
2022-08-29T12:29:12.831Z,1016.93
2022-08-29T12:30:12.911Z,1016.89
2022-08-29T12:31:13.264Z,1016.89
2022-08-29T12:32:22.193Z,1016.81
2022-08-29T12:33:12.967Z,1016.79
2022-08-29T12:34:13.001Z,1016.79
2022-08-29T12:35:13.039Z,1016.76
2022-08-29T12:36:13.080Z,1016.77
2022-08-29T12:37:13.116Z,1016.78
2022-08-29T12:38:13.421Z,1016.80
2022-08-29T12:39:13.177Z,1016.79
2022-08-29T12:40:13.271Z,1016.78
2022-08-29T12:41:13.257Z,1016.72
2022-08-29T12:43:13.323Z,1016.80
2022-08-29T12:44:13.375Z,1016.81
2022-08-29T12:45:13.697Z,1016.76
2022-08-29T12:46:13.465Z,1016.83
2022-08-29T12:47:13.551Z,1016.77
2022-08-29T12:48:13.511Z,1016.82
2022-08-29T12:49:13.534Z,1016.76
2022-08-29T12:50:13.578Z,1016.76
2022-08-29T12:51:13.598Z,1016.77
2022-08-29T12:52:14.032Z,1016.79
2022-08-29T12:53:13.771Z,1016.83
2022-08-29T12:54:13.699Z,1016.81
2022-08-29T12:55:13.738Z,1016.82
2022-08-29T12:56:13.772Z,1016.84
2022-08-29T12:57:13.846Z,1016.86
2022-08-29T12:58:13.918Z,1016.87
2022-08-29T12:59:14.185Z,1016.83